createdAt,value
2023-05-04T09:40:13.806Z,4.90
2023-05-04T09:42:42.369Z,5.55
2023-05-04T09:45:11.097Z,6.27
2023-05-04T09:47:42.267Z,7.75
2023-05-04T09:50:21.108Z,5.72
2023-05-04T09:52:50.391Z,5.28
2023-05-04T09:55:19.610Z,6.82
2023-05-04T09:57:50.655Z,7.20
2023-05-04T10:00:19.302Z,5.88
2023-05-04T10:02:48.402Z,5.45
2023-05-04T10:05:18.014Z,7.70
2023-05-04T10:07:46.587Z,5.13
2023-05-04T10:10:15.513Z,6.63
2023-05-04T10:12:45.310Z,6.97
2023-05-04T10:15:16.058Z,7.13
2023-05-04T10:17:46.565Z,4.85
2023-05-04T10:20:52.161Z,5.60
2023-05-04T10:23:59.241Z,5.63
2023-05-04T10:27:05.750Z,6.70
2023-05-04T10:29:34.248Z,6.43
2023-05-04T10:32:02.332Z,5.43
2023-05-04T10:34:31.948Z,5.32
2023-05-04T10:37:01.868Z,3.65
2023-05-04T10:39:31.810Z,6.28
2023-05-04T10:42:01.607Z,5.68
2023-05-04T10:44:30.359Z,7.03
2023-05-04T10:47:06.733Z,6.60
2023-05-04T10:49:35.809Z,5.80
2023-05-04T10:52:16.286Z,5.93
2023-05-04T10:54:44.514Z,7.43
2023-05-04T10:57:16.743Z,5.40
2023-05-04T10:59:59.290Z,6.05
2023-05-04T11:02:29.753Z,5.65
2023-05-04T11:05:04.512Z,5.75
2023-05-04T11:07:41.687Z,4.65
2023-05-04T11:10:20.565Z,5.90
2023-05-04T11:12:48.711Z,6.20
2023-05-04T11:15:16.399Z,6.77
2023-05-04T11:17:48.202Z,5.03
2023-05-04T11:20:27.035Z,6.35
2023-05-04T11:25:29.762Z,4.17
2023-05-04T11:27:58.882Z,4.90
2023-05-04T11:30:34.625Z,6.38
2023-05-04T11:33:12.258Z,4.90
2023-05-04T11:35:41.158Z,5.28
2023-05-04T11:40:37.525Z,5.13
2023-05-04T11:45:35.485Z,3.50
2023-05-04T11:48:03.565Z,5.60
2023-05-04T11:50:31.849Z,5.37
2023-05-04T11:53:13.628Z,5.05
2023-05-04T11:55:41.997Z,4.45
2023-05-04T11:58:11.582Z,5.57
2023-05-04T12:00:40.452Z,6.93
2023-05-04T12:03:13.532Z,6.75
2023-05-04T12:05:49.199Z,4.70
2023-05-04T12:08:31.538Z,5.28
2023-05-04T12:11:16.310Z,3.97
2023-05-04T12:13:45.618Z,3.97
2023-05-04T12:16:18.439Z,4.85
2023-05-04T12:18:47.468Z,6.03
2023-05-04T12:23:43.635Z,4.43
2023-05-04T12:26:12.356Z,4.43
2023-05-04T12:28:41.273Z,4.43
2023-05-04T12:31:09.415Z,5.00
2023-05-04T12:33:37.499Z,2.90
2023-05-04T12:36:06.197Z,3.80
2023-05-04T12:38:34.719Z,4.55
2023-05-04T12:41:04.451Z,2.95
2023-05-04T12:43:33.195Z,4.07
2023-05-04T12:46:01.214Z,3.65
2023-05-04T12:48:29.161Z,3.93
2023-05-04T12:50:56.982Z,3.22
2023-05-04T12:53:28.008Z,3.38
2023-05-04T12:55:56.458Z,3.45
2023-05-04T12:58:24.105Z,2.58
2023-05-04T13:00:51.880Z,2.88
2023-05-04T13:03:19.882Z,3.78
2023-05-04T13:05:49.703Z,3.67
2023-05-04T13:08:19.732Z,3.70
2023-05-04T13:10:48.113Z,4.32
2023-05-04T13:13:17.861Z,3.10
2023-05-04T13:15:49.504Z,3.83
2023-05-04T13:18:17.289Z,3.47
2023-05-04T13:20:45.677Z,2.88
2023-05-04T13:23:14.087Z,3.20
2023-05-04T13:25:42.218Z,2.22
2023-05-04T13:28:09.897Z,3.50
2023-05-04T13:30:37.529Z,3.20
2023-05-04T13:33:16.732Z,3.70
2023-05-04T13:35:53.470Z,4.32
2023-05-04T13:38:21.137Z,3.50
2023-05-04T13:40:48.764Z,3.67
2023-05-04T13:43:16.408Z,2.85
2023-05-04T13:45:44.011Z,3.13
2023-05-04T13:48:11.849Z,3.28
2023-05-04T13:50:39.443Z,2.97
2023-05-04T13:53:07.387Z,3.10
2023-05-04T13:55:34.959Z,3.17
2023-05-04T13:58:02.750Z,2.40
2023-05-04T14:00:30.525Z,3.03
2023-05-04T14:02:58.679Z,3.13
2023-05-04T14:05:26.368Z,3.08
2023-05-04T14:07:54.014Z,3.03
2023-05-04T14:10:21.811Z,3.38
2023-05-04T14:12:49.494Z,3.87
2023-05-04T14:15:17.359Z,3.55
2023-05-04T14:17:44.978Z,3.72
2023-05-04T14:20:13.130Z,3.38
2023-05-04T14:22:43.540Z,3.35
2023-05-04T14:25:11.338Z,4.55
2023-05-04T14:27:38.943Z,2.47
2023-05-04T14:30:09.410Z,3.38
2023-05-04T14:32:37.121Z,3.10
2023-05-04T14:35:09.871Z,4.13
2023-05-04T14:37:39.951Z,2.83
2023-05-04T14:40:10.655Z,3.97
2023-05-04T14:42:38.887Z,3.60
2023-05-04T14:45:08.465Z,3.88
2023-05-04T14:47:36.513Z,3.22
2023-05-04T14:50:05.402Z,3.37
2023-05-04T14:52:33.239Z,3.63
2023-05-04T14:55:01.175Z,3.42
2023-05-04T14:57:28.956Z,4.30
2023-05-04T14:59:56.541Z,3.25
2023-05-04T15:02:24.444Z,3.45
2023-05-04T15:04:52.091Z,3.15
2023-05-04T15:07:20.941Z,3.85
2023-05-04T15:09:48.657Z,4.32
2023-05-04T15:12:17.574Z,4.18
2023-05-04T15:14:46.130Z,3.72
2023-05-04T15:17:13.874Z,3.70
2023-05-04T15:19:41.460Z,2.67
2023-05-04T15:22:09.472Z,4.10
2023-05-04T15:24:37.126Z,4.07
2023-05-04T15:27:04.925Z,4.30
2023-05-04T15:29:32.637Z,3.15
2023-05-04T15:32:00.393Z,4.00
2023-05-04T15:34:28.126Z,4.53
2023-05-04T15:36:55.882Z,3.78
2023-05-04T15:39:23.501Z,3.45
2023-05-04T15:41:51.216Z,4.35
2023-05-04T15:44:21.054Z,3.72
2023-05-04T15:46:48.732Z,4.20
2023-05-04T15:49:16.500Z,4.40
2023-05-04T15:51:44.068Z,4.22
2023-05-04T15:54:11.688Z,4.28
2023-05-04T15:56:39.236Z,4.40
2023-05-04T15:59:07.325Z,3.22
2023-05-04T16:01:35.028Z,5.50
2023-05-04T16:04:02.745Z,4.15
2023-05-04T16:06:31.324Z,4.70
2023-05-04T16:08:59.120Z,4.47
2023-05-04T16:11:26.733Z,4.85
2023-05-04T16:13:54.512Z,4.50
2023-05-04T16:16:22.387Z,4.88
2023-05-04T16:18:50.083Z,4.57
2023-05-04T16:21:17.704Z,5.03
2023-05-04T16:23:45.343Z,3.95
2023-05-04T16:26:12.950Z,3.78
2023-05-04T16:28:41.569Z,5.68
2023-05-04T16:31:11.801Z,4.53
2023-05-04T16:33:41.674Z,3.90
2023-05-04T16:36:09.747Z,4.90
2023-05-04T16:38:37.546Z,4.70
2023-05-04T16:41:05.468Z,4.03
2023-05-04T16:43:33.274Z,4.45
2023-05-04T16:46:01.209Z,4.78
2023-05-04T16:48:29.248Z,5.17
2023-05-04T16:50:58.247Z,3.77
2023-05-04T16:53:26.074Z,5.03
2023-05-04T16:55:54.096Z,4.20
2023-05-04T16:58:21.841Z,4.38
2023-05-04T17:00:49.441Z,3.83
2023-05-04T17:03:17.305Z,5.40
2023-05-04T17:05:44.989Z,4.70
2023-05-04T17:08:12.720Z,5.10
2023-05-04T17:10:41.258Z,5.18
2023-05-04T17:13:08.906Z,5.35
2023-05-04T17:15:36.635Z,3.97
2023-05-04T17:18:04.440Z,3.55
2023-05-04T17:20:32.378Z,3.15
2023-05-04T17:23:00.235Z,6.15
2023-05-04T17:25:28.096Z,3.67
2023-05-04T17:27:55.945Z,4.43
2023-05-04T17:30:23.855Z,4.32
2023-05-04T17:32:52.524Z,4.20
2023-05-04T17:35:25.974Z,3.60
2023-05-04T17:37:58.793Z,4.13
2023-05-04T17:40:27.724Z,2.78
2023-05-04T17:42:56.454Z,4.10
2023-05-04T17:45:24.263Z,3.85
2023-05-04T17:47:52.056Z,4.18
2023-05-04T17:50:20.159Z,2.85
2023-05-04T17:52:55.237Z,4.27
2023-05-04T17:55:24.752Z,3.97
2023-05-04T17:57:54.333Z,4.00
2023-05-04T18:00:22.420Z,3.63
2023-05-04T18:02:50.216Z,4.50
2023-05-04T18:05:18.104Z,4.07
2023-05-04T18:07:51.239Z,3.50
2023-05-04T18:10:19.215Z,3.53
2023-05-04T18:12:49.839Z,5.28
2023-05-04T18:15:18.606Z,3.90
2023-05-04T18:20:16.820Z,3.75
2023-05-04T18:22:48.469Z,3.88
2023-05-04T18:25:16.329Z,4.05
2023-05-04T18:27:44.494Z,2.97
2023-05-04T18:30:12.538Z,3.85
2023-05-04T18:32:40.499Z,3.27
2023-05-04T18:35:08.344Z,3.97
2023-05-04T18:37:36.015Z,3.78
